sensor_id;sensor_type;location;lat;lon;timestamp;P1;durP1;ratioP1;P2;durP2;ratioP2
3177;SDS011;38141;42.666;23.344;2023-05-24T00:00:09;16.00;;;10.30;;
3177;SDS011;38141;42.666;23.344;2023-05-24T00:02:37;16.93;;;11.40;;
3177;SDS011;38141;42.666;23.344;2023-05-24T00:05:06;17.83;;;11.50;;
3177;SDS011;38141;42.666;23.344;2023-05-24T00:07:34;15.13;;;9.50;;
3177;SDS011;38141;42.666;23.344;2023-05-24T00:10:01;19.80;;;10.30;;
3177;SDS011;38141;42.666;23.344;2023-05-24T00:12:28;18.73;;;11.40;;
3177;SDS011;38141;42.666;23.344;2023-05-24T00:14:56;12.80;;;9.90;;
3177;SDS011;38141;42.666;23.344;2023-05-24T00:17:23;16.93;;;10.77;;
3177;SDS011;38141;42.666;23.344;2023-05-24T00:19:50;17.37;;;10.73;;
3177;SDS011;38141;42.666;23.344;2023-05-24T00:22:18;14.90;;;10.20;;
3177;SDS011;38141;42.666;23.344;2023-05-24T00:24:45;16.67;;;10.90;;
3177;SDS011;38141;42.666;23.344;2023-05-24T00:27:12;16.30;;;10.73;;
3177;SDS011;38141;42.666;23.344;2023-05-24T00:29:39;16.30;;;11.00;;
3177;SDS011;38141;42.666;23.344;2023-05-24T00:32:07;14.17;;;10.20;;
3177;SDS011;38141;42.666;23.344;2023-05-24T00:34:34;24.13;;;11.33;;
3177;SDS011;38141;42.666;23.344;2023-05-24T00:37:00;15.97;;;11.03;;
3177;SDS011;38141;42.666;23.344;2023-05-24T00:39:27;18.87;;;11.17;;
3177;SDS011;38141;42.666;23.344;2023-05-24T00:41:54;20.37;;;11.43;;
3177;SDS011;38141;42.666;23.344;2023-05-24T00:44:21;15.33;;;11.00;;
3177;SDS011;38141;42.666;23.344;2023-05-24T00:46:47;21.13;;;11.60;;
3177;SDS011;38141;42.666;23.344;2023-05-24T00:49:16;18.80;;;11.10;;
3177;SDS011;38141;42.666;23.344;2023-05-24T00:51:44;19.20;;;10.80;;
3177;SDS011;38141;42.666;23.344;2023-05-24T00:54:11;15.00;;;10.60;;
3177;SDS011;38141;42.666;23.344;2023-05-24T00:56:39;14.07;;;9.67;;
3177;SDS011;38141;42.666;23.344;2023-05-24T00:59:06;18.87;;;11.50;;
3177;SDS011;38141;42.666;23.344;2023-05-24T01:01:33;16.27;;;10.40;;
3177;SDS011;38141;42.666;23.344;2023-05-24T01:04:01;19.30;;;11.97;;
3177;SDS011;38141;42.666;23.344;2023-05-24T01:06:29;18.37;;;11.20;;
3177;SDS011;38141;42.666;23.344;2023-05-24T01:09:09;23.30;;;11.70;;
3177;SDS011;38141;42.666;23.344;2023-05-24T01:11:49;19.17;;;11.93;;
3177;SDS011;38141;42.666;23.344;2023-05-24T01:14:25;19.23;;;12.07;;
3177;SDS011;38141;42.666;23.344;2023-05-24T01:16:55;18.90;;;11.40;;
3177;SDS011;38141;42.666;23.344;2023-05-24T01:19:39;13.70;;;10.90;;
3177;SDS011;38141;42.666;23.344;2023-05-24T01:22:32;17.13;;;10.47;;
3177;SDS011;38141;42.666;23.344;2023-05-24T01:25:52;16.47;;;10.80;;
3177;SDS011;38141;42.666;23.344;2023-05-24T01:28:29;20.60;;;10.47;;
3177;SDS011;38141;42.666;23.344;2023-05-24T01:30:58;21.43;;;10.30;;
3177;SDS011;38141;42.666;23.344;2023-05-24T01:33:27;14.70;;;10.53;;
3177;SDS011;38141;42.666;23.344;2023-05-24T01:35:54;20.37;;;11.20;;
3177;SDS011;38141;42.666;23.344;2023-05-24T01:38:20;20.97;;;11.40;;
3177;SDS011;38141;42.666;23.344;2023-05-24T01:40:48;15.40;;;9.53;;
3177;SDS011;38141;42.666;23.344;2023-05-24T01:43:29;18.73;;;10.47;;
3177;SDS011;38141;42.666;23.344;2023-05-24T01:46:05;13.37;;;9.67;;
3177;SDS011;38141;42.666;23.344;2023-05-24T01:48:41;14.90;;;9.93;;
3177;SDS011;38141;42.666;23.344;2023-05-24T01:51:21;17.20;;;10.63;;
3177;SDS011;38141;42.666;23.344;2023-05-24T01:53:50;13.93;;;10.60;;
3177;SDS011;38141;42.666;23.344;2023-05-24T01:56:18;16.80;;;10.40;;
3177;SDS011;38141;42.666;23.344;2023-05-24T01:58:48;16.63;;;10.73;;
3177;SDS011;38141;42.666;23.344;2023-05-24T02:01:18;15.43;;;10.70;;
3177;SDS011;38141;42.666;23.344;2023-05-24T02:03:45;17.03;;;10.10;;
3177;SDS011;38141;42.666;23.344;2023-05-24T02:06:12;14.63;;;10.17;;
3177;SDS011;38141;42.666;23.344;2023-05-24T02:08:39;17.87;;;10.70;;
3177;SDS011;38141;42.666;23.344;2023-05-24T02:11:05;19.43;;;11.87;;
3177;SDS011;38141;42.666;23.344;2023-05-24T02:13:32;18.00;;;10.90;;
3177;SDS011;38141;42.666;23.344;2023-05-24T02:16:00;18.40;;;10.77;;
3177;SDS011;38141;42.666;23.344;2023-05-24T02:18:29;23.70;;;10.50;;
3177;SDS011;38141;42.666;23.344;2023-05-24T02:20:58;14.73;;;10.00;;
3177;SDS011;38141;42.666;23.344;2023-05-24T02:23:25;19.60;;;10.90;;
3177;SDS011;38141;42.666;23.344;2023-05-24T02:25:52;17.07;;;10.57;;
3177;SDS011;38141;42.666;23.344;2023-05-24T02:28:20;23.53;;;11.87;;
3177;SDS011;38141;42.666;23.344;2023-05-24T02:30:47;15.30;;;10.30;;
3177;SDS011;38141;42.666;23.344;2023-05-24T02:33:15;15.00;;;9.30;;
3177;SDS011;38141;42.666;23.344;2023-05-24T02:35:42;14.77;;;9.83;;
3177;SDS011;38141;42.666;23.344;2023-05-24T02:38:08;17.13;;;10.27;;
3177;SDS011;38141;42.666;23.344;2023-05-24T02:40:35;14.43;;;9.70;;
3177;SDS011;38141;42.666;23.344;2023-05-24T02:43:02;14.43;;;9.10;;
3177;SDS011;38141;42.666;23.344;2023-05-24T02:45:29;18.00;;;10.40;;
3177;SDS011;38141;42.666;23.344;2023-05-24T02:47:55;15.53;;;10.07;;
3177;SDS011;38141;42.666;23.344;2023-05-24T02:50:24;20.00;;;11.73;;
3177;SDS011;38141;42.666;23.344;2023-05-24T02:52:50;14.37;;;9.60;;
3177;SDS011;38141;42.666;23.344;2023-05-24T02:55:17;14.17;;;9.30;;
3177;SDS011;38141;42.666;23.344;2023-05-24T02:57:44;15.90;;;10.13;;
3177;SDS011;38141;42.666;23.344;2023-05-24T03:00:12;13.60;;;9.30;;
3177;SDS011;38141;42.666;23.344;2023-05-24T03:02:39;12.90;;;9.47;;
3177;SDS011;38141;42.666;23.344;2023-05-24T03:05:06;18.00;;;9.97;;
3177;SDS011;38141;42.666;23.344;2023-05-24T03:07:35;26.17;;;9.30;;
3177;SDS011;38141;42.666;23.344;2023-05-24T03:10:02;14.10;;;10.00;;
3177;SDS011;38141;42.666;23.344;2023-05-24T03:12:29;17.23;;;10.70;;
3177;SDS011;38141;42.666;23.344;2023-05-24T03:14:56;15.73;;;10.60;;
3177;SDS011;38141;42.666;23.344;2023-05-24T03:17:22;12.43;;;9.50;;
3177;SDS011;38141;42.666;23.344;2023-05-24T03:19:49;16.37;;;9.90;;
3177;SDS011;38141;42.666;23.344;2023-05-24T03:22:17;14.83;;;10.70;;
3177;SDS011;38141;42.666;23.344;2023-05-24T03:24:45;12.57;;;9.40;;
3177;SDS011;38141;42.666;23.344;2023-05-24T03:27:12;14.50;;;10.87;;
3177;SDS011;38141;42.666;23.344;2023-05-24T03:29:39;12.50;;;9.83;;
3177;SDS011;38141;42.666;23.344;2023-05-24T03:32:06;16.63;;;10.30;;
3177;SDS011;38141;42.666;23.344;2023-05-24T03:34:33;16.10;;;11.03;;
3177;SDS011;38141;42.666;23.344;2023-05-24T03:37:00;17.63;;;10.77;;
3177;SDS011;38141;42.666;23.344;2023-05-24T03:39:27;21.87;;;11.23;;
3177;SDS011;38141;42.666;23.344;2023-05-24T03:41:55;14.70;;;9.40;;
3177;SDS011;38141;42.666;23.344;2023-05-24T03:44:22;15.57;;;10.47;;
3177;SDS011;38141;42.666;23.344;2023-05-24T03:46:48;15.97;;;10.47;;
3177;SDS011;38141;42.666;23.344;2023-05-24T03:49:15;15.90;;;11.50;;
3177;SDS011;38141;42.666;23.344;2023-05-24T03:51:42;14.93;;;10.30;;
3177;SDS011;38141;42.666;23.344;2023-05-24T03:54:09;16.70;;;10.67;;
3177;SDS011;38141;42.666;23.344;2023-05-24T03:56:36;16.30;;;10.23;;
3177;SDS011;38141;42.666;23.344;2023-05-24T03:59:04;18.87;;;10.23;;
3177;SDS011;38141;42.666;23.344;2023-05-24T04:01:31;15.07;;;9.83;;
3177;SDS011;38141;42.666;23.344;2023-05-24T04:04:16;17.77;;;10.90;;
3177;SDS011;38141;42.666;23.344;2023-05-24T04:06:43;18.33;;;10.40;;
3177;SDS011;38141;42.666;23.344;2023-05-24T04:09:10;17.97;;;11.43;;
3177;SDS011;38141;42.666;23.344;2023-05-24T04:11:36;15.97;;;10.33;;
3177;SDS011;38141;42.666;23.344;2023-05-24T04:14:05;22.53;;;12.37;;
3177;SDS011;38141;42.666;23.344;2023-05-24T04:16:31;16.10;;;10.77;;
3177;SDS011;38141;42.666;23.344;2023-05-24T04:18:58;17.00;;;11.70;;
3177;SDS011;38141;42.666;23.344;2023-05-24T04:21:27;16.90;;;10.77;;
3177;SDS011;38141;42.666;23.344;2023-05-24T04:23:56;18.70;;;11.80;;
3177;SDS011;38141;42.666;23.344;2023-05-24T04:26:24;19.27;;;11.13;;
3177;SDS011;38141;42.666;23.344;2023-05-24T04:28:51;19.50;;;11.90;;
3177;SDS011;38141;42.666;23.344;2023-05-24T04:31:19;18.47;;;11.87;;
3177;SDS011;38141;42.666;23.344;2023-05-24T04:33:46;19.20;;;12.20;;
3177;SDS011;38141;42.666;23.344;2023-05-24T04:36:14;17.57;;;11.53;;
3177;SDS011;38141;42.666;23.344;2023-05-24T04:38:41;19.73;;;11.80;;
3177;SDS011;38141;42.666;23.344;2023-05-24T04:41:09;19.90;;;12.57;;
3177;SDS011;38141;42.666;23.344;2023-05-24T04:43:38;17.27;;;12.23;;
3177;SDS011;38141;42.666;23.344;2023-05-24T04:46:05;15.97;;;11.30;;
3177;SDS011;38141;42.666;23.344;2023-05-24T04:48:33;15.13;;;11.17;;
3177;SDS011;38141;42.666;23.344;2023-05-24T04:51:00;18.07;;;11.40;;
3177;SDS011;38141;42.666;23.344;2023-05-24T04:53:27;14.23;;;11.40;;
3177;SDS011;38141;42.666;23.344;2023-05-24T04:56:03;17.20;;;11.83;;
3177;SDS011;38141;42.666;23.344;2023-05-24T04:58:30;17.23;;;10.70;;
3177;SDS011;38141;42.666;23.344;2023-05-24T05:00:57;13.17;;;10.70;;
3177;SDS011;38141;42.666;23.344;2023-05-24T05:03:24;14.13;;;10.17;;
3177;SDS011;38141;42.666;23.344;2023-05-24T05:05:52;19.23;;;10.43;;
3177;SDS011;38141;42.666;23.344;2023-05-24T05:08:22;13.77;;;10.13;;
3177;SDS011;38141;42.666;23.344;2023-05-24T05:10:49;18.30;;;11.03;;
3177;SDS011;38141;42.666;23.344;2023-05-24T05:13:16;14.70;;;10.43;;
3177;SDS011;38141;42.666;23.344;2023-05-24T05:15:43;15.48;;;10.38;;
3177;SDS011;38141;42.666;23.344;2023-05-24T05:18:10;13.20;;;9.88;;
3177;SDS011;38141;42.666;23.344;2023-05-24T05:20:36;16.00;;;10.20;;
3177;SDS011;38141;42.666;23.344;2023-05-24T05:23:04;18.65;;;10.75;;
3177;SDS011;38141;42.666;23.344;2023-05-24T05:25:31;16.80;;;9.90;;
3177;SDS011;38141;42.666;23.344;2023-05-24T05:27:58;13.38;;;10.23;;
3177;SDS011;38141;42.666;23.344;2023-05-24T05:30:25;10.77;;;9.13;;
3177;SDS011;38141;42.666;23.344;2023-05-24T05:32:52;15.25;;;9.23;;
3177;SDS011;38141;42.666;23.344;2023-05-24T05:35:19;10.52;;;8.80;;
3177;SDS011;38141;42.666;23.344;2023-05-24T05:37:45;16.58;;;10.35;;
3177;SDS011;38141;42.666;23.344;2023-05-24T05:40:14;11.75;;;9.00;;
3177;SDS011;38141;42.666;23.344;2023-05-24T05:42:43;15.32;;;9.50;;
3177;SDS011;38141;42.666;23.344;2023-05-24T05:45:11;12.40;;;8.30;;
3177;SDS011;38141;42.666;23.344;2023-05-24T05:47:38;12.25;;;8.65;;
3177;SDS011;38141;42.666;23.344;2023-05-24T05:50:05;10.77;;;7.63;;
3177;SDS011;38141;42.666;23.344;2023-05-24T05:52:33;8.90;;;8.00;;
3177;SDS011;38141;42.666;23.344;2023-05-24T05:54:59;7.80;;;6.90;;
3177;SDS011;38141;42.666;23.344;2023-05-24T05:57:27;9.25;;;7.70;;
3177;SDS011;38141;42.666;23.344;2023-05-24T05:59:54;9.25;;;7.40;;
3177;SDS011;38141;42.666;23.344;2023-05-24T06:02:21;12.00;;;7.10;;
3177;SDS011;38141;42.666;23.344;2023-05-24T06:04:48;9.88;;;7.25;;
3177;SDS011;38141;42.666;23.344;2023-05-24T06:07:15;7.47;;;6.38;;
3177;SDS011;38141;42.666;23.344;2023-05-24T06:09:42;10.93;;;7.43;;
3177;SDS011;38141;42.666;23.344;2023-05-24T06:12:09;9.55;;;6.85;;
3177;SDS011;38141;42.666;23.344;2023-05-24T06:14:37;12.27;;;6.60;;
3177;SDS011;38141;42.666;23.344;2023-05-24T06:17:07;10.00;;;6.35;;
3177;SDS011;38141;42.666;23.344;2023-05-24T06:19:35;10.25;;;6.22;;
3177;SDS011;38141;42.666;23.344;2023-05-24T06:22:02;8.00;;;6.65;;
3177;SDS011;38141;42.666;23.344;2023-05-24T06:24:29;8.07;;;5.90;;
3177;SDS011;38141;42.666;23.344;2023-05-24T06:26:58;9.77;;;6.05;;
3177;SDS011;38141;42.666;23.344;2023-05-24T06:29:25;8.27;;;5.90;;
3177;SDS011;38141;42.666;23.344;2023-05-24T06:31:55;8.15;;;5.63;;
3177;SDS011;38141;42.666;23.344;2023-05-24T06:34:22;8.77;;;5.88;;
3177;SDS011;38141;42.666;23.344;2023-05-24T06:36:49;8.25;;;5.22;;
3177;SDS011;38141;42.666;23.344;2023-05-24T06:39:16;7.25;;;5.13;;
3177;SDS011;38141;42.666;23.344;2023-05-24T06:41:44;11.43;;;5.70;;
3177;SDS011;38141;42.666;23.344;2023-05-24T06:44:22;7.57;;;5.57;;
3177;SDS011;38141;42.666;23.344;2023-05-24T06:46:56;6.78;;;5.05;;
3177;SDS011;38141;42.666;23.344;2023-05-24T06:49:23;6.28;;;5.10;;
3177;SDS011;38141;42.666;23.344;2023-05-24T06:51:50;9.15;;;5.57;;
3177;SDS011;38141;42.666;23.344;2023-05-24T06:54:19;5.65;;;5.10;;
3177;SDS011;38141;42.666;23.344;2023-05-24T06:56:46;8.55;;;5.45;;
3177;SDS011;38141;42.666;23.344;2023-05-24T06:59:13;8.95;;;5.32;;
3177;SDS011;38141;42.666;23.344;2023-05-24T07:01:46;9.30;;;5.35;;
3177;SDS011;38141;42.666;23.344;2023-05-24T07:04:17;5.90;;;4.82;;
3177;SDS011;38141;42.666;23.344;2023-05-24T07:06:44;7.22;;;4.97;;
3177;SDS011;38141;42.666;23.344;2023-05-24T07:09:11;9.15;;;5.82;;
3177;SDS011;38141;42.666;23.344;2023-05-24T07:11:38;9.85;;;6.75;;
3177;SDS011;38141;42.666;23.344;2023-05-24T07:14:06;12.70;;;6.72;;
3177;SDS011;38141;42.666;23.344;2023-05-24T07:16:33;7.72;;;6.53;;
3177;SDS011;38141;42.666;23.344;2023-05-24T07:18:59;11.50;;;6.50;;
3177;SDS011;38141;42.666;23.344;2023-05-24T07:21:28;7.28;;;5.97;;
3177;SDS011;38141;42.666;23.344;2023-05-24T07:23:55;12.73;;;9.10;;
3177;SDS011;38141;42.666;23.344;2023-05-24T07:26:22;10.05;;;6.47;;
3177;SDS011;38141;42.666;23.344;2023-05-24T07:28:49;10.95;;;7.05;;
3177;SDS011;38141;42.666;23.344;2023-05-24T07:31:16;8.45;;;6.22;;
3177;SDS011;38141;42.666;23.344;2023-05-24T07:33:43;8.75;;;6.72;;
3177;SDS011;38141;42.666;23.344;2023-05-24T07:36:09;7.45;;;5.72;;
3177;SDS011;38141;42.666;23.344;2023-05-24T07:38:37;20.33;;;14.82;;
3177;SDS011;38141;42.666;23.344;2023-05-24T07:41:05;14.85;;;10.27;;
3177;SDS011;38141;42.666;23.344;2023-05-24T07:43:32;10.45;;;6.80;;
3177;SDS011;38141;42.666;23.344;2023-05-24T07:45:59;31.70;;;24.70;;
3177;SDS011;38141;42.666;23.344;2023-05-24T07:48:25;12.07;;;10.77;;
3177;SDS011;38141;42.666;23.344;2023-05-24T07:50:52;14.02;;;7.43;;
3177;SDS011;38141;42.666;23.344;2023-05-24T07:53:19;26.42;;;16.73;;
3177;SDS011;38141;42.666;23.344;2023-05-24T07:55:48;10.45;;;7.47;;
3177;SDS011;38141;42.666;23.344;2023-05-24T07:58:15;9.70;;;8.35;;
3177;SDS011;38141;42.666;23.344;2023-05-24T08:00:42;8.93;;;7.40;;
3177;SDS011;38141;42.666;23.344;2023-05-24T08:03:09;11.30;;;7.25;;
3177;SDS011;38141;42.666;23.344;2023-05-24T08:05:38;9.52;;;7.22;;
3177;SDS011;38141;42.666;23.344;2023-05-24T08:08:05;7.90;;;6.03;;
3177;SDS011;38141;42.666;23.344;2023-05-24T08:10:33;9.23;;;6.78;;
3177;SDS011;38141;42.666;23.344;2023-05-24T08:13:02;10.48;;;6.10;;
3177;SDS011;38141;42.666;23.344;2023-05-24T08:15:29;12.65;;;6.00;;
3177;SDS011;38141;42.666;23.344;2023-05-24T08:17:56;9.77;;;5.97;;
3177;SDS011;38141;42.666;23.344;2023-05-24T08:20:23;7.60;;;5.90;;
3177;SDS011;38141;42.666;23.344;2023-05-24T08:22:50;7.00;;;5.45;;
3177;SDS011;38141;42.666;23.344;2023-05-24T08:25:16;8.80;;;6.13;;
3177;SDS011;38141;42.666;23.344;2023-05-24T08:27:44;15.40;;;10.98;;
3177;SDS011;38141;42.666;23.344;2023-05-24T08:30:12;22.85;;;16.85;;
3177;SDS011;38141;42.666;23.344;2023-05-24T08:32:39;6.95;;;6.25;;
3177;SDS011;38141;42.666;23.344;2023-05-24T08:35:06;7.10;;;4.75;;
3177;SDS011;38141;42.666;23.344;2023-05-24T08:37:33;5.72;;;4.25;;
3177;SDS011;38141;42.666;23.344;2023-05-24T08:40:00;8.60;;;5.55;;
3177;SDS011;38141;42.666;23.344;2023-05-24T08:42:28;10.65;;;7.75;;
3177;SDS011;38141;42.666;23.344;2023-05-24T08:44:57;30.05;;;21.15;;
3177;SDS011;38141;42.666;23.344;2023-05-24T08:47:29;12.80;;;6.28;;
3177;SDS011;38141;42.666;23.344;2023-05-24T08:49:57;11.25;;;6.30;;
3177;SDS011;38141;42.666;23.344;2023-05-24T08:52:24;9.57;;;5.70;;
3177;SDS011;38141;42.666;23.344;2023-05-24T08:54:53;8.23;;;5.28;;
3177;SDS011;38141;42.666;23.344;2023-05-24T08:57:20;6.22;;;4.80;;
3177;SDS011;38141;42.666;23.344;2023-05-24T08:59:48;10.02;;;4.82;;
3177;SDS011;38141;42.666;23.344;2023-05-24T09:02:16;7.00;;;4.43;;
3177;SDS011;38141;42.666;23.344;2023-05-24T09:04:45;4.97;;;4.38;;
3177;SDS011;38141;42.666;23.344;2023-05-24T09:07:16;5.00;;;4.13;;
3177;SDS011;38141;42.666;23.344;2023-05-24T09:09:45;5.28;;;4.28;;
3177;SDS011;38141;42.666;23.344;2023-05-24T09:12:16;5.07;;;4.35;;
3177;SDS011;38141;42.666;23.344;2023-05-24T09:14:46;4.75;;;4.20;;
3177;SDS011;38141;42.666;23.344;2023-05-24T09:17:13;9.18;;;4.00;;
3177;SDS011;38141;42.666;23.344;2023-05-24T09:19:41;4.00;;;3.60;;
3177;SDS011;38141;42.666;23.344;2023-05-24T09:24:41;7.57;;;3.88;;
3177;SDS011;38141;42.666;23.344;2023-05-24T09:27:08;7.35;;;4.40;;
3177;SDS011;38141;42.666;23.344;2023-05-24T09:29:35;8.23;;;3.90;;
3177;SDS011;38141;42.666;23.344;2023-05-24T09:32:01;4.40;;;3.75;;
3177;SDS011;38141;42.666;23.344;2023-05-24T09:34:32;4.28;;;3.55;;
3177;SDS011;38141;42.666;23.344;2023-05-24T09:37:04;7.20;;;3.40;;
3177;SDS011;38141;42.666;23.344;2023-05-24T09:39:33;3.30;;;2.80;;
3177;SDS011;38141;42.666;23.344;2023-05-24T09:42:00;3.40;;;2.47;;
3177;SDS011;38141;42.666;23.344;2023-05-24T09:44:28;4.68;;;3.03;;
3177;SDS011;38141;42.666;23.344;2023-05-24T09:46:59;5.57;;;3.30;;
3177;SDS011;38141;42.666;23.344;2023-05-24T09:49:28;3.88;;;2.97;;
3177;SDS011;38141;42.666;23.344;2023-05-24T09:51:54;6.22;;;3.50;;
3177;SDS011;38141;42.666;23.344;2023-05-24T09:54:22;4.97;;;3.30;;
3177;SDS011;38141;42.666;23.344;2023-05-24T09:56:51;4.70;;;3.50;;
3177;SDS011;38141;42.666;23.344;2023-05-24T09:59:18;5.93;;;3.22;;
3177;SDS011;38141;42.666;23.344;2023-05-24T10:01:45;5.38;;;3.67;;
3177;SDS011;38141;42.666;23.344;2023-05-24T10:04:17;4.68;;;3.55;;
3177;SDS011;38141;42.666;23.344;2023-05-24T10:06:44;5.40;;;3.95;;
3177;SDS011;38141;42.666;23.344;2023-05-24T10:09:13;5.45;;;4.28;;
3177;SDS011;38141;42.666;23.344;2023-05-24T10:11:40;5.20;;;3.42;;
3177;SDS011;38141;42.666;23.344;2023-05-24T10:14:09;5.53;;;4.18;;
3177;SDS011;38141;42.666;23.344;2023-05-24T10:16:36;5.05;;;4.15;;
3177;SDS011;38141;42.666;23.344;2023-05-24T10:19:03;5.07;;;3.70;;
3177;SDS011;38141;42.666;23.344;2023-05-24T10:21:31;5.28;;;3.80;;
3177;SDS011;38141;42.666;23.344;2023-05-24T10:24:00;6.65;;;4.38;;
3177;SDS011;38141;42.666;23.344;2023-05-24T10:26:30;5.32;;;3.42;;
3177;SDS011;38141;42.666;23.344;2023-05-24T10:28:59;4.60;;;3.92;;
3177;SDS011;38141;42.666;23.344;2023-05-24T10:31:33;4.53;;;3.83;;
3177;SDS011;38141;42.666;23.344;2023-05-24T10:34:04;7.20;;;3.90;;
3177;SDS011;38141;42.666;23.344;2023-05-24T10:36:32;5.90;;;4.45;;
3177;SDS011;38141;42.666;23.344;2023-05-24T10:38:59;5.35;;;3.90;;
3177;SDS011;38141;42.666;23.344;2023-05-24T10:41:27;5.60;;;4.38;;
3177;SDS011;38141;42.666;23.344;2023-05-24T10:43:54;4.32;;;3.80;;
3177;SDS011;38141;42.666;23.344;2023-05-24T10:46:22;6.15;;;4.60;;
3177;SDS011;38141;42.666;23.344;2023-05-24T10:49:00;4.32;;;3.67;;
3177;SDS011;38141;42.666;23.344;2023-05-24T10:51:30;5.68;;;4.20;;
3177;SDS011;38141;42.666;23.344;2023-05-24T10:56:44;5.88;;;4.75;;
3177;SDS011;38141;42.666;23.344;2023-05-24T10:59:22;5.72;;;3.95;;
3177;SDS011;38141;42.666;23.344;2023-05-24T11:02:02;5.65;;;4.60;;
3177;SDS011;38141;42.666;23.344;2023-05-24T11:04:36;5.78;;;4.40;;
3177;SDS011;38141;42.666;23.344;2023-05-24T11:07:07;3.88;;;3.53;;
3177;SDS011;38141;42.666;23.344;2023-05-24T11:09:35;6.40;;;4.00;;
3177;SDS011;38141;42.666;23.344;2023-05-24T11:12:10;6.22;;;4.40;;
3177;SDS011;38141;42.666;23.344;2023-05-24T11:14:40;5.70;;;4.70;;
3177;SDS011;38141;42.666;23.344;2023-05-24T11:17:13;5.32;;;4.22;;
3177;SDS011;38141;42.666;23.344;2023-05-24T11:19:45;7.93;;;4.57;;
3177;SDS011;38141;42.666;23.344;2023-05-24T11:22:14;5.90;;;4.13;;
3177;SDS011;38141;42.666;23.344;2023-05-24T11:24:42;6.70;;;4.18;;
3177;SDS011;38141;42.666;23.344;2023-05-24T11:27:10;5.25;;;4.60;;
3177;SDS011;38141;42.666;23.344;2023-05-24T11:29:41;5.93;;;4.43;;
3177;SDS011;38141;42.666;23.344;2023-05-24T11:32:09;6.15;;;3.72;;
3177;SDS011;38141;42.666;23.344;2023-05-24T11:34:39;5.85;;;4.32;;
3177;SDS011;38141;42.666;23.344;2023-05-24T11:37:10;7.32;;;4.63;;
3177;SDS011;38141;42.666;23.344;2023-05-24T11:39:37;5.57;;;4.20;;
3177;SDS011;38141;42.666;23.344;2023-05-24T11:42:05;4.78;;;4.28;;
3177;SDS011;38141;42.666;23.344;2023-05-24T11:44:33;5.15;;;4.50;;
3177;SDS011;38141;42.666;23.344;2023-05-24T11:47:03;5.50;;;4.13;;
3177;SDS011;38141;42.666;23.344;2023-05-24T11:49:31;5.35;;;4.38;;
3177;SDS011;38141;42.666;23.344;2023-05-24T11:51:58;6.80;;;4.28;;
3177;SDS011;38141;42.666;23.344;2023-05-24T11:54:27;5.95;;;4.35;;
3177;SDS011;38141;42.666;23.344;2023-05-24T11:56:56;9.35;;;4.70;;
3177;SDS011;38141;42.666;23.344;2023-05-24T11:59:24;7.22;;;4.78;;
3177;SDS011;38141;42.666;23.344;2023-05-24T12:01:55;4.82;;;4.35;;
3177;SDS011;38141;42.666;23.344;2023-05-24T12:04:24;5.05;;;3.90;;
3177;SDS011;38141;42.666;23.344;2023-05-24T12:06:52;4.82;;;4.35;;
3177;SDS011;38141;42.666;23.344;2023-05-24T12:09:19;5.28;;;4.30;;
3177;SDS011;38141;42.666;23.344;2023-05-24T12:11:48;4.20;;;3.80;;
3177;SDS011;38141;42.666;23.344;2023-05-24T12:14:16;4.80;;;4.30;;
3177;SDS011;38141;42.666;23.344;2023-05-24T12:16:44;6.68;;;4.43;;
3177;SDS011;38141;42.666;23.344;2023-05-24T12:19:12;5.28;;;4.15;;
3177;SDS011;38141;42.666;23.344;2023-05-24T12:21:42;6.53;;;4.40;;
3177;SDS011;38141;42.666;23.344;2023-05-24T12:24:10;5.45;;;4.40;;
3177;SDS011;38141;42.666;23.344;2023-05-24T12:26:40;6.65;;;4.50;;
3177;SDS011;38141;42.666;23.344;2023-05-24T12:29:09;5.95;;;4.38;;
3177;SDS011;38141;42.666;23.344;2023-05-24T12:31:38;5.78;;;3.92;;
3177;SDS011;38141;42.666;23.344;2023-05-24T12:34:06;4.40;;;3.92;;
3177;SDS011;38141;42.666;23.344;2023-05-24T12:36:36;5.05;;;3.80;;
3177;SDS011;38141;42.666;23.344;2023-05-24T12:39:04;5.82;;;5.22;;
3177;SDS011;38141;42.666;23.344;2023-05-24T12:41:42;5.55;;;3.85;;
3177;SDS011;38141;42.666;23.344;2023-05-24T12:44:11;5.57;;;3.83;;
3177;SDS011;38141;42.666;23.344;2023-05-24T12:46:38;5.32;;;4.53;;
3177;SDS011;38141;42.666;23.344;2023-05-24T12:49:05;4.70;;;4.10;;
3177;SDS011;38141;42.666;23.344;2023-05-24T12:51:31;6.30;;;4.78;;
3177;SDS011;38141;42.666;23.344;2023-05-24T12:53:58;4.63;;;4.20;;
3177;SDS011;38141;42.666;23.344;2023-05-24T12:56:28;11.63;;;4.57;;
3177;SDS011;38141;42.666;23.344;2023-05-24T12:58:55;5.07;;;3.65;;
3177;SDS011;38141;42.666;23.344;2023-05-24T13:01:23;7.10;;;4.40;;
3177;SDS011;38141;42.666;23.344;2023-05-24T13:03:50;5.55;;;4.00;;
3177;SDS011;38141;42.666;23.344;2023-05-24T13:06:17;6.18;;;4.18;;
3177;SDS011;38141;42.666;23.344;2023-05-24T13:08:44;5.03;;;4.30;;
3177;SDS011;38141;42.666;23.344;2023-05-24T13:11:11;4.82;;;4.20;;
3177;SDS011;38141;42.666;23.344;2023-05-24T13:13:38;5.70;;;4.28;;
3177;SDS011;38141;42.666;23.344;2023-05-24T13:16:04;5.03;;;4.53;;
3177;SDS011;38141;42.666;23.344;2023-05-24T13:18:34;5.47;;;3.97;;
3177;SDS011;38141;42.666;23.344;2023-05-24T13:21:01;5.05;;;4.35;;
3177;SDS011;38141;42.666;23.344;2023-05-24T13:23:29;5.72;;;4.50;;
3177;SDS011;38141;42.666;23.344;2023-05-24T13:25:56;4.47;;;3.60;;
3177;SDS011;38141;42.666;23.344;2023-05-24T13:28:25;6.30;;;4.13;;
3177;SDS011;38141;42.666;23.344;2023-05-24T13:30:53;4.32;;;3.92;;
3177;SDS011;38141;42.666;23.344;2023-05-24T13:33:19;6.70;;;4.00;;
3177;SDS011;38141;42.666;23.344;2023-05-24T13:35:47;9.52;;;4.63;;
3177;SDS011;38141;42.666;23.344;2023-05-24T13:38:14;7.53;;;5.60;;
3177;SDS011;38141;42.666;23.344;2023-05-24T13:40:41;6.07;;;4.93;;
3177;SDS011;38141;42.666;23.344;2023-05-24T13:43:08;7.50;;;5.18;;
3177;SDS011;38141;42.666;23.344;2023-05-24T13:45:35;5.95;;;4.18;;
3177;SDS011;38141;42.666;23.344;2023-05-24T13:48:02;7.35;;;4.47;;
3177;SDS011;38141;42.666;23.344;2023-05-24T13:50:29;5.10;;;4.60;;
3177;SDS011;38141;42.666;23.344;2023-05-24T13:52:58;5.15;;;4.13;;
3177;SDS011;38141;42.666;23.344;2023-05-24T13:55:26;6.20;;;4.88;;
3177;SDS011;38141;42.666;23.344;2023-05-24T13:57:53;7.68;;;5.13;;
3177;SDS011;38141;42.666;23.344;2023-05-24T14:00:21;9.85;;;5.18;;
3177;SDS011;38141;42.666;23.344;2023-05-24T14:02:48;5.78;;;4.35;;
3177;SDS011;38141;42.666;23.344;2023-05-24T14:05:16;10.38;;;5.00;;
3177;SDS011;38141;42.666;23.344;2023-05-24T14:07:43;8.32;;;4.93;;
3177;SDS011;38141;42.666;23.344;2023-05-24T14:10:11;6.68;;;5.22;;
3177;SDS011;38141;42.666;23.344;2023-05-24T14:12:38;8.60;;;5.55;;
3177;SDS011;38141;42.666;23.344;2023-05-24T14:15:07;6.38;;;4.57;;
3177;SDS011;38141;42.666;23.344;2023-05-24T14:17:35;6.68;;;4.82;;
3177;SDS011;38141;42.666;23.344;2023-05-24T14:20:03;6.25;;;4.90;;
3177;SDS011;38141;42.666;23.344;2023-05-24T14:22:31;7.70;;;4.90;;
3177;SDS011;38141;42.666;23.344;2023-05-24T14:24:58;6.05;;;4.70;;
3177;SDS011;38141;42.666;23.344;2023-05-24T14:27:26;6.18;;;4.95;;
3177;SDS011;38141;42.666;23.344;2023-05-24T14:29:53;7.00;;;5.28;;
3177;SDS011;38141;42.666;23.344;2023-05-24T14:32:20;5.47;;;4.80;;
3177;SDS011;38141;42.666;23.344;2023-05-24T14:34:47;9.52;;;5.10;;
3177;SDS011;38141;42.666;23.344;2023-05-24T14:37:14;9.73;;;4.47;;
3177;SDS011;38141;42.666;23.344;2023-05-24T14:39:42;7.65;;;4.88;;
3177;SDS011;38141;42.666;23.344;2023-05-24T14:42:09;7.53;;;4.60;;
3177;SDS011;38141;42.666;23.344;2023-05-24T14:44:37;6.00;;;4.88;;
3177;SDS011;38141;42.666;23.344;2023-05-24T14:47:04;6.78;;;4.82;;